Time;durP1;ratioP1;P1;durP2;ratioP2;P2;SDS_P1;SDS_P2;PMS_P1;PMS_P2;Temp;Humidity;BMP_temperature;BMP_pressure;BME280_temperature;BME280_humidity;BME280_pressure;Samples;Min_cycle;Max_cycle;Signal;HPM_P1;HPM_P2
2021/07/11 00:01:45;;;;;;;10.47;8.57;;;15.20;81.70;;;;;;5074291;28;20171;-83
2021/07/11 00:04:11;;;;;;;9.95;7.97;;;15.20;81.70;;;;;;5073484;28;20171;-84
2021/07/11 00:06:37;;;;;;;11.82;8.23;;;15.20;81.70;;;;;;5072138;28;20227;-84
2021/07/11 00:09:06;;;;;;;10.13;7.80;;;15.20;81.80;;;;;;5072292;28;20298;-84
2021/07/11 00:11:33;;;;;;;10.43;8.77;;;15.10;81.80;;;;;;5073401;28;20203;-84
2021/07/11 00:14:02;;;;;;;9.00;7.72;;;15.10;81.90;;;;;;5073361;28;20171;-84
2021/07/11 00:16:29;;;;;;;9.73;8.55;;;15.00;82.00;;;;;;5073335;28;20202;-84
2021/07/11 00:18:56;;;;;;;10.48;9.38;;;15.00;82.20;;;;;;5073195;28;20195;-84
2021/07/11 00:21:21;;;;;;;14.30;10.30;;;15.00;82.70;;;;;;5072075;28;20263;-84
2021/07/11 00:23:47;;;;;;;10.70;9.60;;;15.10;83.30;;;;;;5072028;28;20277;-84
2021/07/11 00:26:12;;;;;;;14.90;9.57;;;15.00;83.90;;;;;;5073460;28;20182;-84
2021/07/11 00:28:39;;;;;;;15.30;9.43;;;14.90;84.50;;;;;;5073061;28;20211;-84
2021/07/11 00:31:05;;;;;;;12.67;9.13;;;14.70;84.90;;;;;;5073180;28;20171;-84
2021/07/11 00:33:31;;;;;;;13.60;9.07;;;14.60;85.20;;;;;;5073158;28;20168;-84
2021/07/11 00:35:56;;;;;;;18.70;9.97;;;14.60;85.50;;;;;;5071935;28;20172;-84
2021/07/11 00:38:22;;;;;;;17.83;10.80;;;14.50;85.90;;;;;;5073107;28;20667;-84
2021/07/11 00:40:48;;;;;;;16.73;11.17;;;14.50;86.00;;;;;;5073349;28;20233;-84
2021/07/11 00:43:14;;;;;;;13.20;9.93;;;14.60;86.10;;;;;;5075910;28;20232;-84
2021/07/11 00:45:40;;;;;;;11.07;9.07;;;14.60;86.00;;;;;;5075924;28;20545;-84
2021/07/11 00:48:07;;;;;;;14.60;8.93;;;14.60;86.00;;;;;;5076909;28;20241;-84
2021/07/11 00:50:32;;;;;;;13.67;9.10;;;14.60;85.80;;;;;;5075843;28;20298;-84
2021/07/11 00:52:58;;;;;;;14.13;8.83;;;14.60;85.40;;;;;;5077038;28;20641;-84
2021/07/11 00:55:24;;;;;;;10.80;8.07;;;14.60;84.90;;;;;;5076959;28;20168;-84
2021/07/11 00:57:50;;;;;;;11.52;8.13;;;14.60;84.50;;;;;;5076814;28;20670;-84
2021/07/11 01:00:16;;;;;;;15.60;8.57;;;14.60;84.20;;;;;;5075584;28;20175;-84
2021/07/11 01:03:01;;;;;;;12.47;8.73;;;14.60;83.90;;;;;;5076887;28;20655;-84
2021/07/11 01:05:28;;;;;;;16.33;9.63;;;14.50;83.70;;;;;;5075658;28;20302;-84
2021/07/11 01:08:06;;;;;;;17.53;9.67;;;14.50;84.60;;;;;;5076980;28;20210;-84
2021/07/11 01:10:58;;;;;;;15.27;10.20;;;14.30;85.80;;;;;;5077037;28;20152;-84
2021/07/11 01:13:25;;;;;;;19.80;9.93;;;14.20;86.30;;;;;;5070792;28;20270;-84
2021/07/11 01:15:53;;;;;;;19.20;11.10;;;14.10;86.90;;;;;;5075421;28;20186;-84
2021/07/11 01:18:22;;;;;;;24.33;11.83;;;14.00;87.50;;;;;;5076484;28;20187;-84
2021/07/11 01:21:08;;;;;;;20.80;11.17;;;13.90;87.80;;;;;;5076515;28;20183;-84
2021/07/11 01:23:57;;;;;;;29.63;12.23;;;13.90;88.20;;;;;;5076484;28;20206;-84
2021/07/11 01:26:25;;;;;;;26.33;13.43;;;13.80;88.40;;;;;;5076379;28;20182;-84
2021/07/11 01:28:52;;;;;;;29.67;12.83;;;13.80;88.80;;;;;;5074986;28;20211;-84
2021/07/11 01:31:20;;;;;;;23.90;12.53;;;13.80;89.00;;;;;;5076420;28;20167;-84
2021/07/11 01:33:47;;;;;;;18.20;13.57;;;13.80;89.00;;;;;;5076194;28;20164;-84
2021/07/11 01:36:13;;;;;;;22.47;14.07;;;13.70;89.20;;;;;;5075016;28;20263;-84
2021/07/11 01:38:41;;;;;;;26.70;14.03;;;13.70;89.40;;;;;;5076073;28;20270;-84
2021/07/11 01:41:11;;;;;;;24.10;14.43;;;13.70;89.50;;;;;;5074865;28;20206;-84
2021/07/11 01:43:37;;;;;;;23.10;14.27;;;13.70;89.50;;;;;;5076116;28;20172;-84
2021/07/11 01:46:06;;;;;;;22.33;13.60;;;13.80;89.70;;;;;;5074759;28;20171;-84
2021/07/11 01:48:33;;;;;;;18.10;13.10;;;13.80;89.70;;;;;;5075837;28;20289;-84
2021/07/11 01:50:59;;;;;;;17.27;13.53;;;13.80;89.60;;;;;;5076102;28;20176;-84
2021/07/11 01:53:32;;;;;;;18.93;14.53;;;13.90;89.60;;;;;;5074323;28;20175;-84
2021/07/11 01:55:58;;;;;;;17.90;12.37;;;13.80;89.50;;;;;;5074630;28;20171;-84
2021/07/11 01:58:24;;;;;;;22.70;13.17;;;13.90;89.40;;;;;;5075830;28;20240;-84
2021/07/11 02:00:52;;;;;;;20.60;13.57;;;13.90;89.30;;;;;;5076023;28;20179;-84
2021/07/11 02:03:20;;;;;;;17.67;13.50;;;13.90;89.50;;;;;;5075714;28;20176;-84
2021/07/11 02:05:46;;;;;;;20.33;12.30;;;13.90;89.60;;;;;;5075747;28;20173;-84
2021/07/11 02:08:13;;;;;;;19.87;12.03;;;13.90;89.60;;;;;;5075928;28;20658;-84
2021/07/11 02:10:40;;;;;;;27.23;12.83;;;13.90;89.60;;;;;;5074343;28;20167;-84
2021/07/11 02:13:16;;;;;;;29.60;12.50;;;13.90;89.80;;;;;;5075682;28;20178;-84
2021/07/11 02:15:48;;;;;;;26.83;12.93;;;13.90;89.90;;;;;;5075595;28;20155;-84
2021/07/11 02:18:16;;;;;;;20.87;12.13;;;13.90;90.00;;;;;;5075489;28;20282;-84
2021/07/11 02:20:47;;;;;;;18.63;11.73;;;13.90;89.90;;;;;;5075425;28;20179;-84
2021/07/11 02:23:13;;;;;;;21.13;12.33;;;14.00;89.90;;;;;;5075412;28;20155;-84
2021/07/11 02:25:39;;;;;;;17.93;12.10;;;14.00;89.90;;;;;;5074161;28;20201;-84
2021/07/11 02:28:07;;;;;;;33.37;11.47;;;14.00;90.10;;;;;;5073895;28;20203;-84
2021/07/11 02:30:41;;;;;;;35.93;12.53;;;14.00;90.30;;;;;;5074035;28;20221;-84
2021/07/11 02:33:12;;;;;;;27.40;12.40;;;14.00;90.30;;;;;;5075236;28;20147;-84
2021/07/11 02:35:43;;;;;;;21.33;12.77;;;14.00;90.30;;;;;;5073922;28;20655;-83
2021/07/11 02:38:12;;;;;;;29.60;12.30;;;14.00;90.50;;;;;;5075097;28;20184;-84
2021/07/11 02:40:38;;;;;;;18.57;11.60;;;14.10;90.50;;;;;;5075154;28;20180;-84
2021/07/11 02:43:08;;;;;;;24.13;11.63;;;14.20;90.50;;;;;;5075305;28;20172;-84
2021/07/11 02:45:35;;;;;;;23.90;11.50;;;14.20;90.60;;;;;;5073759;28;20176;-84
2021/07/11 02:48:03;;;;;;;19.67;11.10;;;14.20;90.50;;;;;;5074731;28;20679;-84
2021/07/11 02:50:30;;;;;;;17.17;11.57;;;14.30;90.40;;;;;;5074874;28;20174;-84
2021/07/11 02:52:57;;;;;;;26.93;11.00;;;14.20;90.50;;;;;;5074814;28;20164;-84
2021/07/11 02:55:31;;;;;;;33.53;11.20;;;14.30;90.70;;;;;;5073552;28;20176;-84
2021/07/11 02:58:04;;;;;;;24.80;11.50;;;14.30;90.60;;;;;;5073488;28;20228;-84
2021/07/11 03:00:30;;;;;;;23.63;11.93;;;14.30;90.60;;;;;;5073394;28;20297;-84
2021/07/11 03:02:57;;;;;;;18.60;11.10;;;14.30;90.70;;;;;;5074613;28;20254;-84
2021/07/11 03:05:24;;;;;;;27.93;12.97;;;14.20;90.70;;;;;;5072536;28;20217;-84
2021/07/11 03:07:53;;;;;;;21.33;10.90;;;14.30;90.70;;;;;;5073151;28;20199;-84
2021/07/11 03:10:19;;;;;;;24.73;11.13;;;14.30;90.50;;;;;;5073257;28;20176;-84
2021/07/11 03:12:47;;;;;;;16.43;11.97;;;14.30;90.40;;;;;;5074406;28;20163;-84
2021/07/11 03:15:13;;;;;;;20.13;11.43;;;14.30;90.50;;;;;;5073169;28;20175;-84
2021/07/11 03:17:41;;;;;;;24.23;11.67;;;14.30;90.40;;;;;;5074306;28;20168;-84
2021/07/11 03:20:09;;;;;;;20.60;11.63;;;14.30;90.40;;;;;;5074281;28;20163;-84
2021/07/11 03:22:37;;;;;;;19.20;11.77;;;14.30;90.50;;;;;;5073211;28;20182;-84
2021/07/11 03:25:06;;;;;;;16.47;11.13;;;14.40;90.60;;;;;;5074112;28;20217;-84
2021/07/11 03:27:33;;;;;;;17.67;11.50;;;14.40;90.50;;;;;;5072643;28;20214;-84
2021/07/11 03:30:11;;;;;;;21.90;11.23;;;14.50;90.40;;;;;;5072720;28;20635;-84
2021/07/11 03:32:41;;;;;;;22.17;11.47;;;14.50;90.50;;;;;;5074035;28;20520;-84
2021/07/11 03:35:08;;;;;;;16.33;9.67;;;14.50;90.60;;;;;;5074049;28;20325;-84
2021/07/11 03:37:38;;;;;;;20.53;11.00;;;14.50;90.70;;;;;;5073907;28;20171;-84
2021/07/11 03:40:06;;;;;;;15.43;10.13;;;14.60;90.60;;;;;;5074058;28;20262;-84
2021/07/11 03:42:40;;;;;;;17.43;9.80;;;14.60;90.50;;;;;;5072534;28;20175;-84
2021/07/11 03:45:08;;;;;;;18.57;10.43;;;14.70;90.40;;;;;;5072598;28;20170;-84
2021/07/11 03:47:47;;;;;;;19.90;11.30;;;14.70;90.30;;;;;;5073490;28;20160;-84
2021/07/11 03:50:14;;;;;;;17.63;10.07;;;14.80;90.20;;;;;;5073700;28;20156;-84
2021/07/11 03:52:53;;;;;;;16.13;10.43;;;14.80;90.00;;;;;;5073951;28;20305;-84
2021/07/11 03:55:20;;;;;;;13.23;9.57;;;14.90;89.60;;;;;;5073858;28;20232;-84
2021/07/11 03:57:48;;;;;;;16.47;10.67;;;15.00;89.40;;;;;;5073553;28;20187;-84
2021/07/11 04:00:18;;;;;;;14.30;10.07;;;15.10;89.30;;;;;;5072452;28;20522;-84
2021/07/11 04:02:49;;;;;;;14.33;10.43;;;15.20;89.20;;;;;;5073573;28;20263;-84
2021/07/11 04:05:19;;;;;;;17.77;9.70;;;15.20;89.20;;;;;;5074122;28;20230;-84
2021/07/11 04:07:47;;;;;;;16.87;9.30;;;15.20;89.10;;;;;;5072148;28;20712;-84
2021/07/11 04:10:14;;;;;;;21.63;8.90;;;15.20;89.20;;;;;;5073691;28;20163;-84
2021/07/11 04:12:39;;;;;;;16.37;9.47;;;15.30;89.10;;;;;;5073392;28;20209;-84
2021/07/11 04:15:05;;;;;;;22.17;10.53;;;15.20;89.10;;;;;;5072218;28;20614;-84
2021/07/11 04:17:32;;;;;;;11.43;8.70;;;15.20;89.00;;;;;;5071950;28;20221;-84
2021/07/11 04:20:00;;;;;;;12.47;8.80;;;15.20;89.00;;;;;;5073311;28;20175;-84
2021/07/11 04:22:27;;;;;;;14.40;8.83;;;15.20;88.90;;;;;;5073211;28;20561;-84
2021/07/11 04:24:54;;;;;;;9.33;8.40;;;15.20;89.10;;;;;;5073292;28;20511;-84
2021/07/11 04:27:21;;;;;;;9.53;8.23;;;15.20;89.20;;;;;;5071953;28;20655;-84
2021/07/11 04:29:50;;;;;;;13.67;8.73;;;15.20;89.20;;;;;;5072993;28;20202;-84
2021/07/11 04:32:17;;;;;;;12.40;9.27;;;15.20;89.30;;;;;;5073145;28;20254;-84
2021/07/11 04:34:42;;;;;;;13.57;8.97;;;15.20;89.20;;;;;;5073222;28;20529;-84
2021/07/11 04:37:08;;;;;;;12.93;8.83;;;15.10;89.30;;;;;;5073117;28;20168;-84
2021/07/11 04:39:34;;;;;;;14.13;8.47;;;15.20;89.30;;;;;;5071791;28;20228;-84
2021/07/11 04:42:01;;;;;;;11.13;8.50;;;15.20;89.30;;;;;;5073077;28;20168;-84
2021/07/11 04:44:30;;;;;;;11.37;9.80;;;15.10;89.30;;;;;;5073124;28;20250;-84
2021/07/11 04:46:57;;;;;;;17.13;8.67;;;15.20;89.20;;;;;;5071760;28;20179;-84
2021/07/11 04:49:24;;;;;;;12.47;8.97;;;15.10;89.20;;;;;;5160646;22;20226;-82
2021/07/11 04:51:51;;;;;;;12.23;9.17;;;15.10;89.20;;;;;;5072948;28;20262;-85
2021/07/11 04:54:17;;;;;;;10.23;9.10;;;15.10;89.10;;;;;;5072928;28;20252;-85
2021/07/11 04:56:43;;;;;;;10.97;9.50;;;15.10;89.10;;;;;;5071815;28;20645;-84
2021/07/11 04:59:09;;;;;;;10.33;9.33;;;15.10;89.10;;;;;;5072886;28;20203;-83
2021/07/11 05:01:34;;;;;;;9.83;8.83;;;15.10;89.30;;;;;;5072981;28;20203;-84
2021/07/11 05:04:02;;;;;;;10.53;9.43;;;15.00;89.30;;;;;;5071674;28;20523;-84
2021/07/11 05:06:27;;;;;;;12.10;8.83;;;15.00;89.20;;;;;;5088449;28;20651;-84
2021/07/11 05:08:53;;;;;;;12.10;10.00;;;15.00;89.20;;;;;;5072855;28;20256;-83
2021/07/11 05:11:18;;;;;;;13.13;8.90;;;15.00;89.30;;;;;;5073012;28;20168;-83
2021/07/11 05:13:44;;;;;;;14.80;10.20;;;14.90;89.40;;;;;;5072802;28;20176;-83
2021/07/11 05:16:10;;;;;;;12.80;9.60;;;14.90;89.60;;;;;;5073857;28;20178;-83
2021/07/11 05:18:36;;;;;;;12.77;9.83;;;15.00;89.70;;;;;;5073099;28;20234;-85
2021/07/11 05:21:02;;;;;;;16.23;10.47;;;15.00;89.90;;;;;;5072439;28;20257;-83
2021/07/11 05:23:28;;;;;;;11.97;10.07;;;15.00;90.00;;;;;;5071811;28;20219;-83
2021/07/11 05:25:55;;;;;;;11.97;10.37;;;15.10;90.10;;;;;;5072028;28;20224;-83
2021/07/11 05:28:20;;;;;;;12.33;11.03;;;15.20;90.30;;;;;;5074837;28;20203;-83
2021/07/11 05:30:46;;;;;;;12.70;10.03;;;15.30;90.40;;;;;;5077269;28;20591;-83
2021/07/11 05:33:12;;;;;;;10.43;9.37;;;15.30;90.20;;;;;;5076705;28;20178;-83
2021/07/11 05:35:37;;;;;;;13.37;10.53;;;15.40;90.20;;;;;;5076748;28;20174;-83
2021/07/11 05:38:03;;;;;;;11.90;10.67;;;15.50;90.10;;;;;;5076093;28;20287;-84
2021/07/11 05:40:29;;;;;;;11.63;10.20;;;15.70;90.20;;;;;;5076147;28;20232;-84
2021/07/11 05:42:55;;;;;;;11.17;10.00;;;15.80;89.90;;;;;;5076057;28;20179;-84
2021/07/11 05:45:20;;;;;;;10.30;9.20;;;15.90;89.60;;;;;;5076186;28;20181;-84
2021/07/11 05:47:47;;;;;;;15.40;10.10;;;16.10;89.20;;;;;;5074821;28;20203;-84
2021/07/11 05:50:13;;;;;;;11.20;9.27;;;16.30;89.40;;;;;;5074833;28;20704;-84
2021/07/11 05:52:40;;;;;;;9.93;7.73;;;16.40;88.80;;;;;;5076058;28;20167;-84
2021/07/11 05:55:06;;;;;;;10.45;8.25;;;16.60;88.60;;;;;;5076360;28;20200;-84
2021/07/11 05:57:32;;;;;;;8.88;7.47;;;16.60;88.00;;;;;;5075931;28;20172;-83
2021/07/11 05:59:57;;;;;;;8.77;7.88;;;16.70;88.40;;;;;;5074628;28;20301;-83
2021/07/11 06:02:24;;;;;;;7.47;6.82;;;17.00;88.30;;;;;;5076357;28;20555;-85
2021/07/11 06:04:49;;;;;;;8.18;6.72;;;17.10;88.20;;;;;;5075513;28;20180;-84
2021/07/11 06:07:15;;;;;;;10.05;6.72;;;17.20;86.10;;;;;;5074543;28;20179;-83
2021/07/11 06:09:41;;;;;;;8.10;6.22;;;17.30;86.50;;;;;;5075403;28;20210;-84
2021/07/11 06:12:07;;;;;;;7.45;6.75;;;17.40;86.30;;;;;;5075680;28;20213;-84
2021/07/11 06:14:33;;;;;;;6.63;6.07;;;17.50;85.90;;;;;;5074446;28;20176;-84
2021/07/11 06:17:00;;;;;;;8.07;7.30;;;17.70;85.70;;;;;;5075622;28;20168;-84
2021/07/11 06:19:26;;;;;;;8.80;6.88;;;17.80;85.90;;;;;;5075546;28;20598;-84
2021/07/11 06:21:51;;;;;;;8.60;7.05;;;17.90;84.50;;;;;;5075417;28;20172;-84
2021/07/11 06:24:17;;;;;;;9.02;6.57;;;18.00;85.10;;;;;;5075704;28;20665;-84
2021/07/11 06:26:44;;;;;;;7.18;6.43;;;18.10;85.00;;;;;;5074001;28;20191;-84
2021/07/11 06:29:09;;;;;;;8.85;6.43;;;18.20;84.10;;;;;;5075200;28;20203;-84
2021/07/11 06:31:35;;;;;;;11.23;7.00;;;18.30;83.90;;;;;;5074238;28;20550;-83
2021/07/11 06:34:01;;;;;;;10.85;7.05;;;18.40;83.60;;;;;;5075514;28;20175;-83
2021/07/11 06:36:27;;;;;;;7.68;6.88;;;18.50;84.10;;;;;;5091062;28;20233;-83
2021/07/11 06:38:53;;;;;;;8.55;7.70;;;18.70;82.80;;;;;;5073724;28;20571;-83
2021/07/11 06:41:19;;;;;;;7.30;6.57;;;18.70;83.10;;;;;;5074291;28;20167;-84
2021/07/11 06:43:45;;;;;;;8.35;7.43;;;18.80;82.50;;;;;;5075132;28;20167;-84
2021/07/11 06:46:11;;;;;;;7.93;6.70;;;18.80;82.40;;;;;;5073832;28;20215;-84
2021/07/11 06:48:37;;;;;;;11.82;6.60;;;19.10;82.80;;;;;;5074415;28;20211;-84
2021/07/11 06:51:04;;;;;;;10.43;6.60;;;19.10;80.90;;;;;;5073603;28;20174;-87
2021/07/11 06:53:29;;;;;;;7.68;6.30;;;19.10;80.80;;;;;;5074133;28;20178;-85
2021/07/11 06:55:55;;;;;;;12.63;6.18;;;19.20;81.10;;;;;;5073856;28;20270;-85
2021/07/11 06:58:21;;;;;;;6.00;5.38;;;19.30;80.00;;;;;;5073342;28;20191;-85
2021/07/11 07:00:47;;;;;;;6.72;5.55;;;19.40;80.50;;;;;;5074584;28;20179;-84
2021/07/11 07:03:12;;;;;;;12.02;6.55;;;19.50;79.80;;;;;;5074429;28;20265;-84
2021/07/11 07:05:38;;;;;;;6.18;5.57;;;19.60;80.10;;;;;;5089990;28;20210;-84
2021/07/11 07:08:04;;;;;;;6.25;5.53;;;19.60;79.30;;;;;;5072450;28;20238;-85
2021/07/11 07:10:30;;;;;;;10.38;6.18;;;19.70;80.00;;;;;;5089755;28;20624;-85
2021/07/11 07:12:56;;;;;;;8.57;5.78;;;19.80;80.00;;;;;;5074475;28;20203;-85
2021/07/11 07:15:21;;;;;;;6.47;5.88;;;19.90;79.60;;;;;;5073129;28;20183;-84
2021/07/11 07:17:47;;;;;;;5.95;5.45;;;20.00;78.90;;;;;;5074095;28;20198;-84
2021/07/11 07:20:14;;;;;;;6.90;5.43;;;20.00;79.40;;;;;;5074220;28;20657;-83
2021/07/11 07:22:40;;;;;;;7.75;5.45;;;20.20;78.50;;;;;;5074187;28;20167;-84
2021/07/11 07:25:08;;;;;;;8.55;5.13;;;20.30;77.50;;;;;;5074187;28;20639;-84
2021/07/11 07:27:33;;;;;;;7.82;5.18;;;20.30;76.80;;;;;;5089555;28;20651;-84
2021/07/11 07:29:59;;;;;;;6.95;5.60;;;20.40;76.70;;;;;;5072665;28;20222;-84
2021/07/11 07:32:25;;;;;;;10.55;4.85;;;20.40;76.60;;;;;;5073811;28;20661;-85
2021/07/11 07:34:50;;;;;;;6.63;5.75;;;20.60;77.50;;;;;;5073789;28;20167;-84
2021/07/11 07:37:16;;;;;;;6.32;5.20;;;20.70;76.40;;;;;;5074019;28;20164;-85
2021/07/11 07:39:42;;;;;;;9.25;5.07;;;20.70;76.40;;;;;;5073868;28;20249;-85
2021/07/11 07:42:07;;;;;;;8.70;5.75;;;20.80;76.90;;;;;;5073813;28;20198;-84
2021/07/11 07:44:33;;;;;;;8.52;5.20;;;20.90;75.70;;;;;;5073261;28;20654;-85
2021/07/11 07:46:59;;;;;;;6.40;5.13;;;20.90;75.10;;;;;;5073653;28;20203;-84
2021/07/11 07:49:25;;;;;;;7.15;5.40;;;21.00;76.40;;;;;;5070968;28;20217;-84
2021/07/11 07:51:50;;;;;;;5.75;5.10;;;20.90;75.30;;;;;;5070799;28;20614;-84
2021/07/11 07:54:16;;;;;;;12.57;5.70;;;21.20;76.80;;;;;;5071926;28;20202;-84
2021/07/11 07:56:41;;;;;;;9.05;4.95;;;21.30;76.40;;;;;;5071013;28;20673;-83
2021/07/11 07:59:08;;;;;;;5.78;5.10;;;21.40;76.10;;;;;;5072499;28;20175;-83
2021/07/11 08:01:33;;;;;;;5.68;4.18;;;21.50;74.40;;;;;;5072906;28;20179;-82
2021/07/11 08:04:00;;;;;;;6.20;4.72;;;21.40;73.90;;;;;;5072522;28;20332;-83
2021/07/11 08:06:25;;;;;;;9.23;5.32;;;21.50;74.40;;;;;;5073898;28;20704;-82
2021/07/11 08:08:51;;;;;;;8.93;5.00;;;21.50;74.00;;;;;;5073656;28;20282;-83
2021/07/11 08:11:17;;;;;;;5.32;4.68;;;21.60;74.20;;;;;;5073848;28;20172;-82
2021/07/11 08:13:42;;;;;;;6.50;4.50;;;21.60;74.10;;;;;;5072256;28;20168;-83
2021/07/11 08:16:08;;;;;;;6.90;4.57;;;21.70;73.70;;;;;;5073701;28;20213;-83
2021/07/11 08:18:34;;;;;;;8.98;4.55;;;21.70;73.10;;;;;;5073432;28;20191;-83
2021/07/11 08:21:00;;;;;;;9.07;5.28;;;21.80;73.30;;;;;;5072059;28;20183;-83
2021/07/11 08:23:25;;;;;;;5.80;4.65;;;21.90;74.90;;;;;;5073332;28;20183;-82
2021/07/11 08:25:51;;;;;;;9.45;4.90;;;22.00;71.80;;;;;;5073373;28;20233;-83
2021/07/11 08:28:17;;;;;;;5.70;4.65;;;22.10;72.40;;;;;;5072116;28;20209;-84
2021/07/11 08:30:42;;;;;;;5.95;4.75;;;22.00;72.10;;;;;;5072157;28;20214;-83
2021/07/11 08:33:08;;;;;;;5.45;4.28;;;22.10;72.10;;;;;;5073282;28;20219;-85
2021/07/11 08:35:34;;;;;;;6.43;4.30;;;22.20;72.30;;;;;;5072077;28;20218;-84
2021/07/11 08:37:59;;;;;;;4.45;3.80;;;22.20;70.90;;;;;;5073228;28;20167;-84
2021/07/11 08:40:25;;;;;;;4.72;4.32;;;22.20;71.90;;;;;;5073456;28;20171;-84
2021/07/11 08:42:52;;;;;;;7.85;4.53;;;22.50;71.60;;;;;;5073369;28;20650;-84
2021/07/11 08:45:18;;;;;;;5.78;3.95;;;22.50;70.10;;;;;;5073251;28;20170;-83
2021/07/11 08:47:44;;;;;;;7.50;4.40;;;22.50;70.50;;;;;;5072880;28;20179;-84
2021/07/11 08:50:12;;;;;;;8.02;3.42;;;22.60;72.10;;;;;;5072973;28;20176;-84
2021/07/11 08:52:39;;;;;;;4.47;3.92;;;22.70;71.50;;;;;;5073039;28;20174;-83
2021/07/11 08:55:19;;;;;;;3.90;3.58;;;22.80;70.20;;;;;;5073542;28;20163;-83
2021/07/11 08:57:57;;;;;;;6.10;4.10;;;22.80;71.10;;;;;;5073305;28;20180;-83
2021/07/11 09:00:26;;;;;;;4.60;3.65;;;22.90;71.00;;;;;;5074589;28;20655;-84
2021/07/11 09:02:52;;;;;;;4.40;4.00;;;22.90;69.00;;;;;;5072338;28;20182;-82
2021/07/11 09:05:30;;;;;;;5.97;4.65;;;22.90;69.30;;;;;;5075613;28;20254;-83
2021/07/11 09:07:58;;;;;;;6.32;4.93;;;23.10;67.10;;;;;;5076808;28;20201;-83
2021/07/11 09:10:56;;;;;;;5.30;4.80;;;23.10;67.30;;;;;;5092988;28;20179;-84
2021/07/11 09:13:24;;;;;;;6.60;5.00;;;23.10;67.00;;;;;;5068347;28;20643;-83
2021/07/11 09:15:53;;;;;;;5.95;4.72;;;23.20;66.20;;;;;;5076713;28;20172;-84
2021/07/11 09:18:28;;;;;;;4.88;4.35;;;23.20;65.30;;;;;;5077400;28;20678;-83
2021/07/11 09:21:03;;;;;;;6.07;4.57;;;23.30;67.40;;;;;;5076830;28;20559;-84
2021/07/11 09:23:31;;;;;;;5.13;4.50;;;23.50;66.00;;;;;;5077648;28;20269;-85
2021/07/11 09:26:12;;;;;;;8.23;4.65;;;23.50;67.40;;;;;;5093626;28;20229;-85
2021/07/11 09:28:44;;;;;;;5.85;4.22;;;23.60;65.80;;;;;;5077873;28;20206;-84
2021/07/11 09:31:12;;;;;;;6.35;4.93;;;23.80;65.40;;;;;;5076331;28;20156;-83
2021/07/11 09:33:41;;;;;;;5.43;4.30;;;23.70;64.30;;;;;;5092077;28;20682;-83
2021/07/11 09:36:17;;;;;;;6.40;3.90;;;23.80;63.70;;;;;;5094930;28;20620;-83
2021/07/11 09:38:54;;;;;;;5.38;4.25;;;23.80;65.00;;;;;;5077207;28;20255;-83
2021/07/11 09:41:27;;;;;;;6.22;4.30;;;23.80;61.80;;;;;;5078595;28;20204;-84
2021/07/11 09:43:56;;;;;;;8.82;4.55;;;23.80;62.50;;;;;;5077273;28;20180;-83
2021/07/11 09:46:24;;;;;;;7.18;4.30;;;23.90;64.30;;;;;;5074934;28;20195;-85
2021/07/11 09:48:50;;;;;;;4.10;3.60;;;24.20;64.70;;;;;;5075012;28;25074;-83
2021/07/11 09:51:25;;;;;;;6.13;3.97;;;24.30;61.90;;;;;;5073776;28;20159;-83
2021/07/11 09:53:52;;;;;;;5.68;4.20;;;24.40;59.70;;;;;;5076087;28;20187;-82
2021/07/11 09:56:38;;;;;;;4.70;4.10;;;24.50;60.40;;;;;;5073718;28;20292;-83
2021/07/11 09:59:06;;;;;;;4.60;4.00;;;24.60;60.60;;;;;;5074511;28;20249;-83
2021/07/11 10:01:33;;;;;;;4.88;4.38;;;24.60;60.20;;;;;;5076155;28;20179;-82
2021/07/11 10:04:00;;;;;;;7.05;4.60;;;24.60;60.10;;;;;;5078814;28;20183;-82
2021/07/11 10:06:30;;;;;;;4.43;3.95;;;24.60;60.40;;;;;;5075642;28;20221;-82
2021/07/11 10:08:57;;;;;;;5.50;4.00;;;24.60;59.30;;;;;;5091110;28;20209;-82
2021/07/11 10:11:22;;;;;;;6.20;4.72;;;24.60;59.20;;;;;;5077118;28;20174;-82
2021/07/11 10:13:49;;;;;;;5.05;4.30;;;24.70;60.50;;;;;;5074667;28;20636;-83
2021/07/11 10:16:15;;;;;;;5.95;4.53;;;24.80;60.10;;;;;;5091255;28;20179;-83
2021/07/11 10:18:43;;;;;;;7.30;5.20;;;24.90;60.40;;;;;;5077961;28;20674;-82
2021/07/11 10:21:10;;;;;;;6.70;4.65;;;25.00;60.20;;;;;;5075878;28;20179;-82
2021/07/11 10:23:39;;;;;;;9.45;4.55;;;25.10;60.20;;;;;;5075776;28;20254;-82
2021/07/11 10:26:07;;;;;;;5.82;4.00;;;25.20;59.60;;;;;;5074267;28;20171;-85
2021/07/11 10:28:36;;;;;;;4.85;4.25;;;24.80;58.80;;;;;;5075949;28;20290;-82
2021/07/11 10:31:03;;;;;;;5.13;4.63;;;24.70;63.10;;;;;;5075483;28;20160;-83
2021/07/11 10:33:30;;;;;;;6.82;4.30;;;25.00;60.90;;;;;;5075182;28;20192;-83
2021/07/11 10:36:05;;;;;;;4.85;4.32;;;25.00;60.50;;;;;;5075494;28;20238;-81
2021/07/11 10:38:36;;;;;;;9.07;5.35;;;25.20;60.80;;;;;;5075329;28;20202;-82
2021/07/11 10:41:09;;;;;;;5.18;4.68;;;25.40;61.80;;;;;;5090621;28;20164;-82
2021/07/11 10:43:35;;;;;;;8.00;4.43;;;25.50;60.70;;;;;;5073723;28;20686;-82
2021/07/11 10:46:01;;;;;;;6.18;4.25;;;25.50;59.50;;;;;;5073526;28;20229;-82
2021/07/11 10:48:28;;;;;;;5.55;4.38;;;25.70;60.40;;;;;;5074801;28;20217;-81
2021/07/11 10:50:53;;;;;;;4.60;4.20;;;25.70;58.60;;;;;;5090407;28;20179;-83
2021/07/11 10:53:19;;;;;;;8.90;4.72;;;25.70;57.90;;;;;;5075238;28;20174;-83
2021/07/11 10:55:45;;;;;;;8.38;4.57;;;25.50;61.10;;;;;;5074633;28;20171;-83
2021/07/11 10:58:18;;;;;;;5.53;4.70;;;25.30;60.20;;;;;;5073771;28;20199;-83
2021/07/11 11:00:46;;;;;;;8.60;4.95;;;25.20;61.20;;;;;;5075475;28;20258;-83
2021/07/11 11:03:25;;;;;;;5.53;4.70;;;25.30;60.50;;;;;;5091761;28;20179;-84
2021/07/11 11:05:52;;;;;;;10.07;5.53;;;25.20;60.00;;;;;;5090367;28;20551;-83
2021/07/11 11:08:25;;;;;;;6.32;4.45;;;25.20;58.80;;;;;;5096950;22;20237;-82
2021/07/11 11:10:53;;;;;;;4.75;4.40;;;25.30;62.20;;;;;;5073344;28;20164;-83
2021/07/11 11:13:24;;;;;;;4.15;3.67;;;25.60;61.60;;;;;;5075274;28;20176;-82
2021/07/11 11:16:12;;;;;;;4.90;4.40;;;25.80;55.60;;;;;;5090346;28;20217;-82
2021/07/11 11:18:40;;;;;;;6.60;4.30;;;26.00;58.20;;;;;;5074435;28;20194;-82
2021/07/11 11:21:17;;;;;;;6.32;4.07;;;26.20;55.80;;;;;;5074636;28;20255;-83
2021/07/11 11:23:55;;;;;;;4.50;4.10;;;26.50;56.40;;;;;;5075071;28;20163;-83
2021/07/11 11:26:27;;;;;;;7.63;3.80;;;26.60;55.70;;;;;;5072828;28;20175;-84
2021/07/11 11:28:56;;;;;;;4.50;4.10;;;26.70;55.30;;;;;;5075128;28;20550;-83
2021/07/11 11:31:25;;;;;;;7.15;4.10;;;26.70;54.80;;;;;;5074535;28;20168;-84
2021/07/11 11:34:00;;;;;;;5.43;4.35;;;26.90;55.60;;;;;;5074750;28;20164;-84
2021/07/11 11:36:39;;;;;;;5.13;3.97;;;27.00;53.10;;;;;;5073096;28;20665;-84
2021/07/11 11:39:17;;;;;;;6.10;4.28;;;26.90;52.90;;;;;;5073027;28;20251;-84
2021/07/11 11:41:43;;;;;;;4.47;3.85;;;27.00;53.70;;;;;;5075229;28;20171;-84
2021/07/11 11:44:13;;;;;;;4.88;4.22;;;27.00;51.50;;;;;;5074262;28;20175;-84
2021/07/11 11:46:40;;;;;;;6.80;4.25;;;27.00;54.40;;;;;;5074541;28;20168;-84
2021/07/11 11:49:10;;;;;;;5.65;4.97;;;26.80;53.60;;;;;;5073878;28;20285;-84
2021/07/11 11:51:41;;;;;;;10.75;4.40;;;26.70;55.70;;;;;;5073968;28;20655;-84
2021/07/11 11:54:07;;;;;;;7.68;4.43;;;26.60;56.10;;;;;;5074337;28;20201;-84
2021/07/11 11:56:35;;;;;;;7.85;4.70;;;26.60;57.60;;;;;;5073860;28;20700;-84
2021/07/11 11:59:04;;;;;;;5.00;4.50;;;26.20;60.30;;;;;;5072283;28;20211;-83
2021/07/11 12:01:35;;;;;;;6.45;4.47;;;26.50;57.10;;;;;;5073650;28;20171;-84
2021/07/11 12:04:13;;;;;;;4.88;4.30;;;26.90;56.40;;;;;;5073732;28;20160;-84
2021/07/11 12:06:40;;;;;;;6.75;4.28;;;27.60;55.80;;;;;;5073883;28;20168;-84
2021/07/11 12:09:07;;;;;;;5.65;4.40;;;28.00;52.90;;;;;;5073537;28;20253;-84
2021/07/11 12:11:33;;;;;;;4.50;4.07;;;28.00;50.30;;;;;;5074027;28;20712;-84
2021/07/11 12:14:26;;;;;;;4.30;3.95;;;27.50;52.00;;;;;;5073482;28;20220;-83
2021/07/11 12:17:07;;;;;;;4.80;4.40;;;27.20;55.30;;;;;;5072276;28;20184;-83
2021/07/11 12:19:50;;;;;;;6.97;4.57;;;27.20;55.60;;;;;;5073665;28;20170;-83
2021/07/11 12:22:23;;;;;;;4.50;4.10;;;27.20;53.70;;;;;;5073783;28;20189;-84
2021/07/11 12:27:42;;;;;;;9.30;4.05;;;27.30;51.10;;;;;;5070828;28;20635;-83
2021/07/11 12:30:11;;;;;;;4.75;4.00;;;27.30;54.70;;;;;;5072036;28;20248;-83
2021/07/11 12:32:45;;;;;;;6.45;4.50;;;27.10;53.90;;;;;;5073721;28;20216;-85
2021/07/11 12:35:11;;;;;;;4.53;4.13;;;26.90;54.20;;;;;;5073284;28;20155;-85
2021/07/11 12:37:58;;;;;;;5.65;4.07;;;26.40;56.90;;;;;;5072050;28;20179;-85
2021/07/11 12:40:26;;;;;;;4.82;4.32;;;26.50;57.20;;;;;;5072039;28;20225;-84
2021/07/11 12:43:05;;;;;;;6.00;4.60;;;26.30;59.30;;;;;;5073197;28;20164;-84
2021/07/11 12:45:30;;;;;;;5.10;4.60;;;26.40;57.70;;;;;;5073156;28;20159;-84
2021/07/11 12:47:56;;;;;;;5.85;4.43;;;26.30;60.80;;;;;;5072943;28;20728;-84